Main page
METAR-TAF:

METAR-TAF

Airports :

Bastia, France

Bastia – Poretta Airport

latitude: 42-33N, longitude: 009-29E, elevation: 8 m

Current weather observation

The report was made 28 minutes ago, at 10:30 UTC
Wind 3 kt from variable directions
Temperature 17°C
Humidity 59%
Pressure 1020 hPa
Visibility 10 km or more
Few clouds at a height of 2600 ft

METAR: LFKB 231030Z VRB03KT 9999 FEW026 17/09 Q1020 NOSIG

Time: 11:58 (10:58 UTC)

Forecast

The report was made 2 hours and 58 minutes ago, at 08:00 UTC
Forecast valid from 23 at 09 UTC to 24 at 09 UTC
Wind 4 kt from the West/Southwest
Visibility 10 km or more
no clouds below 1500 m and no cumulonimbus
Becoming
from 23 at 09 UTC to 23 at 11 UTC
Wind 10 kt from the Southeast
Few clouds at a height of 3000 ft
Becoming
from 23 at 16 UTC to 23 at 18 UTC
Wind 4 kt from the West/Southwest

TAF: LFKB 230800Z 2309/2409 24004KT CAVOK BECMG 2309/2311 14010KT FEW030 BECMG 2316/2318 24004KT TX17/2311Z TN08/2402Z

Weather observations and forecasts of more than 4000 airports (METAR and TAF reports).

The available stations are represented by yellow and red dots on the map.

Hover mouse over dot to see the name of the station.

Then click to see weather observations and forecasts.

To change the map : click on the green buttons with a black cross to zoom in, on the green button with a dash to zoom out, or on the green arrows for adjacent maps.


METAR-TAF: